sensor_id;sensor_type;location;lat;lon;timestamp;P1;durP1;ratioP1;P2;durP2;ratioP2
38499;SDS011;24269;51.894;4.622;2022-07-21T00:01:34;14.32;;;10.98;;
38499;SDS011;24269;51.894;4.622;2022-07-21T00:04:00;13.18;;;10.38;;
38499;SDS011;24269;51.894;4.622;2022-07-21T00:06:26;15.07;;;10.90;;
38499;SDS011;24269;51.894;4.622;2022-07-21T00:08:52;14.02;;;11.30;;
38499;SDS011;24269;51.894;4.622;2022-07-21T00:11:17;14.02;;;10.65;;
38499;SDS011;24269;51.894;4.622;2022-07-21T00:13:43;13.80;;;10.45;;
38499;SDS011;24269;51.894;4.622;2022-07-21T00:16:09;14.95;;;11.25;;
38499;SDS011;24269;51.894;4.622;2022-07-21T00:18:35;13.93;;;11.35;;
38499;SDS011;24269;51.894;4.622;2022-07-21T00:21:01;15.27;;;12.07;;
38499;SDS011;24269;51.894;4.622;2022-07-21T00:23:27;14.52;;;11.38;;
38499;SDS011;24269;51.894;4.622;2022-07-21T00:25:53;15.43;;;12.15;;
38499;SDS011;24269;51.894;4.622;2022-07-21T00:28:19;13.98;;;11.75;;
38499;SDS011;24269;51.894;4.622;2022-07-21T00:30:45;15.38;;;11.52;;
38499;SDS011;24269;51.894;4.622;2022-07-21T00:33:11;14.95;;;11.68;;
38499;SDS011;24269;51.894;4.622;2022-07-21T00:35:37;15.60;;;13.10;;
38499;SDS011;24269;51.894;4.622;2022-07-21T00:38:03;15.40;;;12.82;;
38499;SDS011;24269;51.894;4.622;2022-07-21T00:40:28;16.38;;;13.18;;
38499;SDS011;24269;51.894;4.622;2022-07-21T00:42:55;14.32;;;12.40;;
38499;SDS011;24269;51.894;4.622;2022-07-21T00:45:21;14.82;;;12.70;;
38499;SDS011;24269;51.894;4.622;2022-07-21T00:47:47;15.90;;;12.70;;
38499;SDS011;24269;51.894;4.622;2022-07-21T00:50:14;16.20;;;13.50;;
38499;SDS011;24269;51.894;4.622;2022-07-21T00:52:42;15.93;;;12.65;;
38499;SDS011;24269;51.894;4.622;2022-07-21T00:55:09;14.32;;;12.52;;
38499;SDS011;24269;51.894;4.622;2022-07-21T00:57:37;16.63;;;13.07;;
38499;SDS011;24269;51.894;4.622;2022-07-21T01:00:06;16.52;;;14.32;;
38499;SDS011;24269;51.894;4.622;2022-07-21T01:02:34;17.88;;;14.82;;
38499;SDS011;24269;51.894;4.622;2022-07-21T01:05:03;18.33;;;14.60;;
38499;SDS011;24269;51.894;4.622;2022-07-21T01:07:37;18.63;;;14.95;;
38499;SDS011;24269;51.894;4.622;2022-07-21T01:10:04;18.48;;;15.05;;
38499;SDS011;24269;51.894;4.622;2022-07-21T01:12:30;18.27;;;14.63;;
38499;SDS011;24269;51.894;4.622;2022-07-21T01:14:56;17.48;;;15.27;;
38499;SDS011;24269;51.894;4.622;2022-07-21T01:17:22;18.35;;;14.57;;
38499;SDS011;24269;51.894;4.622;2022-07-21T01:19:48;18.45;;;14.73;;
38499;SDS011;24269;51.894;4.622;2022-07-21T01:22:13;19.13;;;14.77;;
38499;SDS011;24269;51.894;4.622;2022-07-21T01:24:39;20.20;;;16.17;;
38499;SDS011;24269;51.894;4.622;2022-07-21T01:27:05;19.55;;;15.93;;
38499;SDS011;24269;51.894;4.622;2022-07-21T01:29:30;17.50;;;15.20;;
38499;SDS011;24269;51.894;4.622;2022-07-21T01:31:56;18.67;;;16.35;;
38499;SDS011;24269;51.894;4.622;2022-07-21T01:34:22;21.63;;;17.02;;
38499;SDS011;24269;51.894;4.622;2022-07-21T01:36:47;17.48;;;15.60;;
38499;SDS011;24269;51.894;4.622;2022-07-21T01:39:13;19.00;;;15.77;;
38499;SDS011;24269;51.894;4.622;2022-07-21T01:41:58;21.05;;;16.55;;
38499;SDS011;24269;51.894;4.622;2022-07-21T01:44:24;19.05;;;17.05;;
38499;SDS011;24269;51.894;4.622;2022-07-21T01:46:50;18.92;;;15.88;;
38499;SDS011;24269;51.894;4.622;2022-07-21T01:49:17;19.65;;;15.65;;
38499;SDS011;24269;51.894;4.622;2022-07-21T01:51:44;17.15;;;15.18;;
38499;SDS011;24269;51.894;4.622;2022-07-21T01:54:10;18.00;;;15.55;;
38499;SDS011;24269;51.894;4.622;2022-07-21T01:56:37;19.52;;;15.20;;
38499;SDS011;24269;51.894;4.622;2022-07-21T01:59:03;16.92;;;14.63;;
38499;SDS011;24269;51.894;4.622;2022-07-21T02:01:30;20.10;;;16.08;;
38499;SDS011;24269;51.894;4.622;2022-07-21T02:04:00;18.40;;;15.38;;
38499;SDS011;24269;51.894;4.622;2022-07-21T02:06:27;19.97;;;16.30;;
38499;SDS011;24269;51.894;4.622;2022-07-21T02:08:54;20.20;;;17.02;;
38499;SDS011;24269;51.894;4.622;2022-07-21T02:11:20;20.52;;;16.48;;
38499;SDS011;24269;51.894;4.622;2022-07-21T02:13:46;20.27;;;16.83;;
38499;SDS011;24269;51.894;4.622;2022-07-21T02:16:12;20.70;;;17.20;;
38499;SDS011;24269;51.894;4.622;2022-07-21T02:18:38;19.65;;;17.48;;
38499;SDS011;24269;51.894;4.622;2022-07-21T02:21:04;20.05;;;17.52;;
38499;SDS011;24269;51.894;4.622;2022-07-21T02:23:31;20.13;;;16.95;;
38499;SDS011;24269;51.894;4.622;2022-07-21T02:25:57;20.67;;;17.60;;
38499;SDS011;24269;51.894;4.622;2022-07-21T02:28:23;20.42;;;17.40;;
38499;SDS011;24269;51.894;4.622;2022-07-21T02:30:49;21.52;;;17.17;;
38499;SDS011;24269;51.894;4.622;2022-07-21T02:33:15;20.80;;;17.25;;
38499;SDS011;24269;51.894;4.622;2022-07-21T02:35:41;21.50;;;17.63;;
38499;SDS011;24269;51.894;4.622;2022-07-21T02:38:08;20.42;;;17.45;;
38499;SDS011;24269;51.894;4.622;2022-07-21T02:40:33;19.63;;;17.13;;
38499;SDS011;24269;51.894;4.622;2022-07-21T02:42:59;21.33;;;17.83;;
38499;SDS011;24269;51.894;4.622;2022-07-21T02:45:25;24.58;;;17.90;;
38499;SDS011;24269;51.894;4.622;2022-07-21T02:50:18;23.85;;;20.33;;
38499;SDS011;24269;51.894;4.622;2022-07-21T02:52:45;25.30;;;20.33;;
38499;SDS011;24269;51.894;4.622;2022-07-21T02:55:11;27.20;;;21.85;;
38499;SDS011;24269;51.894;4.622;2022-07-21T02:57:37;31.17;;;22.40;;
38499;SDS011;24269;51.894;4.622;2022-07-21T03:00:04;27.77;;;21.95;;
38499;SDS011;24269;51.894;4.622;2022-07-21T03:02:31;27.30;;;22.15;;
38499;SDS011;24269;51.894;4.622;2022-07-21T03:04:56;26.30;;;22.25;;
38499;SDS011;24269;51.894;4.622;2022-07-21T03:07:22;26.60;;;21.48;;
38499;SDS011;24269;51.894;4.622;2022-07-21T03:09:48;28.33;;;22.55;;
38499;SDS011;24269;51.894;4.622;2022-07-21T03:12:13;26.92;;;22.30;;
38499;SDS011;24269;51.894;4.622;2022-07-21T03:14:39;30.15;;;23.40;;
38499;SDS011;24269;51.894;4.622;2022-07-21T03:17:05;27.27;;;23.25;;
38499;SDS011;24269;51.894;4.622;2022-07-21T03:19:30;28.23;;;22.52;;
38499;SDS011;24269;51.894;4.622;2022-07-21T03:21:56;29.88;;;23.70;;
38499;SDS011;24269;51.894;4.622;2022-07-21T03:24:21;29.17;;;23.83;;
38499;SDS011;24269;51.894;4.622;2022-07-21T03:26:47;31.95;;;24.55;;
38499;SDS011;24269;51.894;4.622;2022-07-21T03:29:13;31.42;;;24.30;;
38499;SDS011;24269;51.894;4.622;2022-07-21T03:31:39;28.13;;;24.38;;
38499;SDS011;24269;51.894;4.622;2022-07-21T03:34:05;31.77;;;24.83;;
38499;SDS011;24269;51.894;4.622;2022-07-21T03:36:30;27.45;;;24.45;;
38499;SDS011;24269;51.894;4.622;2022-07-21T03:38:56;31.38;;;25.52;;
38499;SDS011;24269;51.894;4.622;2022-07-21T03:41:21;33.20;;;26.05;;
38499;SDS011;24269;51.894;4.622;2022-07-21T03:43:47;29.20;;;24.75;;
38499;SDS011;24269;51.894;4.622;2022-07-21T03:46:13;32.58;;;25.15;;
38499;SDS011;24269;51.894;4.622;2022-07-21T03:48:39;33.88;;;25.48;;
38499;SDS011;24269;51.894;4.622;2022-07-21T03:51:04;32.00;;;25.20;;
38499;SDS011;24269;51.894;4.622;2022-07-21T03:53:30;30.90;;;24.45;;
38499;SDS011;24269;51.894;4.622;2022-07-21T03:55:56;34.85;;;24.50;;
38499;SDS011;24269;51.894;4.622;2022-07-21T03:58:22;31.60;;;24.23;;
38499;SDS011;24269;51.894;4.622;2022-07-21T04:00:48;30.60;;;24.63;;
38499;SDS011;24269;51.894;4.622;2022-07-21T04:03:13;31.38;;;23.60;;
38499;SDS011;24269;51.894;4.622;2022-07-21T04:05:40;29.90;;;23.92;;
38499;SDS011;24269;51.894;4.622;2022-07-21T04:08:09;28.85;;;22.70;;
38499;SDS011;24269;51.894;4.622;2022-07-21T04:10:37;30.55;;;22.85;;
38499;SDS011;24269;51.894;4.622;2022-07-21T04:13:05;29.33;;;23.02;;
38499;SDS011;24269;51.894;4.622;2022-07-21T04:15:33;29.88;;;22.10;;
38499;SDS011;24269;51.894;4.622;2022-07-21T04:17:59;29.45;;;22.10;;
38499;SDS011;24269;51.894;4.622;2022-07-21T04:20:24;27.38;;;21.23;;
38499;SDS011;24269;51.894;4.622;2022-07-21T04:22:50;29.55;;;21.80;;
38499;SDS011;24269;51.894;4.622;2022-07-21T04:25:17;28.65;;;21.15;;
38499;SDS011;24269;51.894;4.622;2022-07-21T04:27:44;28.45;;;20.80;;
38499;SDS011;24269;51.894;4.622;2022-07-21T04:30:14;29.98;;;20.23;;
38499;SDS011;24269;51.894;4.622;2022-07-21T04:32:42;29.63;;;20.27;;
38499;SDS011;24269;51.894;4.622;2022-07-21T04:35:08;26.15;;;19.83;;
38499;SDS011;24269;51.894;4.622;2022-07-21T04:37:35;30.63;;;21.55;;
38499;SDS011;24269;51.894;4.622;2022-07-21T04:40:02;27.95;;;20.88;;
38499;SDS011;24269;51.894;4.622;2022-07-21T04:42:29;27.70;;;21.00;;
38499;SDS011;24269;51.894;4.622;2022-07-21T04:44:55;28.05;;;20.45;;
38499;SDS011;24269;51.894;4.622;2022-07-21T04:47:20;26.92;;;20.63;;
38499;SDS011;24269;51.894;4.622;2022-07-21T04:49:46;27.75;;;22.08;;
38499;SDS011;24269;51.894;4.622;2022-07-21T04:52:11;31.50;;;21.70;;
38499;SDS011;24269;51.894;4.622;2022-07-21T04:54:37;31.60;;;21.52;;
38499;SDS011;24269;51.894;4.622;2022-07-21T04:57:03;31.20;;;21.15;;
38499;SDS011;24269;51.894;4.622;2022-07-21T04:59:30;30.70;;;21.95;;
38499;SDS011;24269;51.894;4.622;2022-07-21T05:01:57;29.42;;;22.60;;
38499;SDS011;24269;51.894;4.622;2022-07-21T05:04:23;34.55;;;21.83;;
38499;SDS011;24269;51.894;4.622;2022-07-21T05:06:49;33.72;;;22.65;;
38499;SDS011;24269;51.894;4.622;2022-07-21T05:09:15;31.30;;;22.23;;
38499;SDS011;24269;51.894;4.622;2022-07-21T05:11:40;36.42;;;23.10;;
38499;SDS011;24269;51.894;4.622;2022-07-21T05:14:06;37.50;;;23.58;;
38499;SDS011;24269;51.894;4.622;2022-07-21T05:16:31;39.25;;;24.27;;
38499;SDS011;24269;51.894;4.622;2022-07-21T05:18:57;40.05;;;24.67;;
38499;SDS011;24269;51.894;4.622;2022-07-21T05:21:22;38.55;;;26.60;;
38499;SDS011;24269;51.894;4.622;2022-07-21T05:23:48;37.95;;;27.10;;
38499;SDS011;24269;51.894;4.622;2022-07-21T05:26:14;39.75;;;27.67;;
38499;SDS011;24269;51.894;4.622;2022-07-21T05:28:40;41.80;;;26.88;;
38499;SDS011;24269;51.894;4.622;2022-07-21T05:31:06;47.70;;;27.92;;
38499;SDS011;24269;51.894;4.622;2022-07-21T05:33:33;43.20;;;28.67;;
38499;SDS011;24269;51.894;4.622;2022-07-21T05:35:58;44.75;;;28.60;;
38499;SDS011;24269;51.894;4.622;2022-07-21T05:38:24;42.67;;;29.83;;
38499;SDS011;24269;51.894;4.622;2022-07-21T05:40:50;48.03;;;29.70;;
38499;SDS011;24269;51.894;4.622;2022-07-21T05:43:15;46.40;;;30.55;;
38499;SDS011;24269;51.894;4.622;2022-07-21T05:45:41;45.58;;;30.63;;
38499;SDS011;24269;51.894;4.622;2022-07-21T05:48:07;45.45;;;31.90;;
38499;SDS011;24269;51.894;4.622;2022-07-21T05:50:32;45.10;;;30.92;;
38499;SDS011;24269;51.894;4.622;2022-07-21T05:52:58;53.53;;;33.33;;
38499;SDS011;24269;51.894;4.622;2022-07-21T05:55:24;52.67;;;31.95;;
38499;SDS011;24269;51.894;4.622;2022-07-21T05:57:49;54.65;;;34.00;;
38499;SDS011;24269;51.894;4.622;2022-07-21T06:00:15;49.00;;;33.42;;
38499;SDS011;24269;51.894;4.622;2022-07-21T06:02:42;55.28;;;32.53;;
38499;SDS011;24269;51.894;4.622;2022-07-21T06:05:08;48.22;;;32.38;;
38499;SDS011;24269;51.894;4.622;2022-07-21T06:07:35;51.70;;;33.72;;
38499;SDS011;24269;51.894;4.622;2022-07-21T06:10:02;45.95;;;32.38;;
38499;SDS011;24269;51.894;4.622;2022-07-21T06:12:28;55.35;;;33.20;;
38499;SDS011;24269;51.894;4.622;2022-07-21T06:14:54;49.58;;;33.72;;
38499;SDS011;24269;51.894;4.622;2022-07-21T06:17:20;45.78;;;32.75;;
38499;SDS011;24269;51.894;4.622;2022-07-21T06:19:46;52.35;;;32.80;;
38499;SDS011;24269;51.894;4.622;2022-07-21T06:22:12;47.22;;;31.48;;
38499;SDS011;24269;51.894;4.622;2022-07-21T06:24:38;43.33;;;29.88;;
38499;SDS011;24269;51.894;4.622;2022-07-21T06:27:03;43.20;;;29.95;;
38499;SDS011;24269;51.894;4.622;2022-07-21T06:29:29;44.05;;;30.67;;
38499;SDS011;24269;51.894;4.622;2022-07-21T06:31:55;49.75;;;31.92;;
38499;SDS011;24269;51.894;4.622;2022-07-21T06:34:20;44.45;;;31.67;;
38499;SDS011;24269;51.894;4.622;2022-07-21T06:36:46;46.38;;;31.88;;
38499;SDS011;24269;51.894;4.622;2022-07-21T06:39:11;45.15;;;31.45;;
38499;SDS011;24269;51.894;4.622;2022-07-21T06:41:38;45.15;;;31.95;;
38499;SDS011;24269;51.894;4.622;2022-07-21T06:44:05;47.97;;;34.03;;
38499;SDS011;24269;51.894;4.622;2022-07-21T06:46:31;46.95;;;34.92;;
38499;SDS011;24269;51.894;4.622;2022-07-21T06:48:58;54.70;;;37.70;;
38499;SDS011;24269;51.894;4.622;2022-07-21T06:51:23;55.13;;;38.28;;
38499;SDS011;24269;51.894;4.622;2022-07-21T06:53:49;58.38;;;40.85;;
38499;SDS011;24269;51.894;4.622;2022-07-21T06:56:16;57.20;;;38.78;;
38499;SDS011;24269;51.894;4.622;2022-07-21T06:58:42;50.35;;;35.35;;
38499;SDS011;24269;51.894;4.622;2022-07-21T07:01:07;52.22;;;35.15;;
38499;SDS011;24269;51.894;4.622;2022-07-21T07:03:33;49.70;;;34.55;;
38499;SDS011;24269;51.894;4.622;2022-07-21T07:05:59;48.92;;;30.63;;
38499;SDS011;24269;51.894;4.622;2022-07-21T07:08:25;40.40;;;28.20;;
38499;SDS011;24269;51.894;4.622;2022-07-21T07:10:50;37.78;;;25.52;;
38499;SDS011;24269;51.894;4.622;2022-07-21T07:13:16;28.42;;;21.15;;
38499;SDS011;24269;51.894;4.622;2022-07-21T07:15:43;25.63;;;17.90;;
38499;SDS011;24269;51.894;4.622;2022-07-21T07:18:09;26.17;;;16.75;;
38499;SDS011;24269;51.894;4.622;2022-07-21T07:20:35;20.63;;;14.52;;
38499;SDS011;24269;51.894;4.622;2022-07-21T07:23:01;20.05;;;12.88;;
38499;SDS011;24269;51.894;4.622;2022-07-21T07:25:26;15.68;;;11.52;;
38499;SDS011;24269;51.894;4.622;2022-07-21T07:27:52;14.77;;;9.95;;
38499;SDS011;24269;51.894;4.622;2022-07-21T07:30:19;15.98;;;11.05;;
38499;SDS011;24269;51.894;4.622;2022-07-21T07:32:45;14.15;;;10.90;;
38499;SDS011;24269;51.894;4.622;2022-07-21T07:35:12;12.63;;;10.18;;
38499;SDS011;24269;51.894;4.622;2022-07-21T07:37:39;13.45;;;10.40;;
38499;SDS011;24269;51.894;4.622;2022-07-21T07:40:07;14.07;;;10.00;;
38499;SDS011;24269;51.894;4.622;2022-07-21T07:42:35;14.55;;;10.55;;
38499;SDS011;24269;51.894;4.622;2022-07-21T07:45:02;16.20;;;11.00;;
38499;SDS011;24269;51.894;4.622;2022-07-21T07:47:30;14.25;;;11.00;;
38499;SDS011;24269;51.894;4.622;2022-07-21T07:49:56;16.13;;;11.85;;
38499;SDS011;24269;51.894;4.622;2022-07-21T07:52:22;15.82;;;11.88;;
38499;SDS011;24269;51.894;4.622;2022-07-21T07:54:47;14.40;;;10.85;;
38499;SDS011;24269;51.894;4.622;2022-07-21T07:57:13;17.55;;;11.43;;
38499;SDS011;24269;51.894;4.622;2022-07-21T07:59:39;16.95;;;12.48;;
38499;SDS011;24269;51.894;4.622;2022-07-21T08:02:04;15.52;;;11.95;;
38499;SDS011;24269;51.894;4.622;2022-07-21T08:04:30;17.83;;;13.35;;
38499;SDS011;24269;51.894;4.622;2022-07-21T08:06:56;18.92;;;12.43;;
38499;SDS011;24269;51.894;4.622;2022-07-21T08:09:21;21.38;;;13.35;;
38499;SDS011;24269;51.894;4.622;2022-07-21T08:11:47;17.50;;;11.30;;
38499;SDS011;24269;51.894;4.622;2022-07-21T08:14:13;16.83;;;12.07;;
38499;SDS011;24269;51.894;4.622;2022-07-21T08:16:40;17.73;;;11.15;;
38499;SDS011;24269;51.894;4.622;2022-07-21T08:19:05;16.40;;;11.25;;
38499;SDS011;24269;51.894;4.622;2022-07-21T08:21:31;17.55;;;11.82;;
38499;SDS011;24269;51.894;4.622;2022-07-21T08:23:58;17.38;;;12.70;;
38499;SDS011;24269;51.894;4.622;2022-07-21T08:26:25;16.48;;;12.00;;
38499;SDS011;24269;51.894;4.622;2022-07-21T08:28:54;16.15;;;11.43;;
38499;SDS011;24269;51.894;4.622;2022-07-21T08:31:21;19.02;;;13.18;;
38499;SDS011;24269;51.894;4.622;2022-07-21T08:33:48;15.82;;;11.68;;
38499;SDS011;24269;51.894;4.622;2022-07-21T08:36:14;20.55;;;13.00;;
38499;SDS011;24269;51.894;4.622;2022-07-21T08:38:40;17.92;;;11.98;;
38499;SDS011;24269;51.894;4.622;2022-07-21T08:41:05;14.90;;;12.55;;
38499;SDS011;24269;51.894;4.622;2022-07-21T08:43:33;17.95;;;11.70;;
38499;SDS011;24269;51.894;4.622;2022-07-21T08:45:59;18.38;;;12.07;;
38499;SDS011;24269;51.894;4.622;2022-07-21T08:48:26;13.95;;;11.25;;
38499;SDS011;24269;51.894;4.622;2022-07-21T08:50:54;20.65;;;12.38;;
38499;SDS011;24269;51.894;4.622;2022-07-21T08:53:20;21.33;;;12.18;;
38499;SDS011;24269;51.894;4.622;2022-07-21T08:55:47;16.20;;;10.75;;
38499;SDS011;24269;51.894;4.622;2022-07-21T08:58:13;15.70;;;11.00;;
38499;SDS011;24269;51.894;4.622;2022-07-21T09:00:40;15.98;;;11.02;;
38499;SDS011;24269;51.894;4.622;2022-07-21T09:05:35;18.27;;;12.77;;
38499;SDS011;24269;51.894;4.622;2022-07-21T09:08:01;20.55;;;12.73;;
38499;SDS011;24269;51.894;4.622;2022-07-21T09:10:28;20.20;;;13.10;;
38499;SDS011;24269;51.894;4.622;2022-07-21T09:12:56;21.77;;;14.68;;
38499;SDS011;24269;51.894;4.622;2022-07-21T09:15:25;25.92;;;17.33;;
38499;SDS011;24269;51.894;4.622;2022-07-21T09:20:47;26.88;;;19.58;;
38499;SDS011;24269;51.894;4.622;2022-07-21T09:23:15;26.30;;;18.48;;
38499;SDS011;24269;51.894;4.622;2022-07-21T09:25:44;23.67;;;16.73;;
38499;SDS011;24269;51.894;4.622;2022-07-21T09:28:16;22.02;;;15.63;;
38499;SDS011;24269;51.894;4.622;2022-07-21T09:33:36;17.83;;;11.65;;
38499;SDS011;24269;51.894;4.622;2022-07-21T09:38:40;17.33;;;12.13;;
38499;SDS011;24269;51.894;4.622;2022-07-21T09:41:10;18.27;;;12.50;;
38499;SDS011;24269;51.894;4.622;2022-07-21T09:43:47;18.88;;;12.60;;
38499;SDS011;24269;51.894;4.622;2022-07-21T09:48:50;16.52;;;11.73;;
38499;SDS011;24269;51.894;4.622;2022-07-21T09:54:00;13.25;;;9.95;;
38499;SDS011;24269;51.894;4.622;2022-07-21T09:56:28;11.23;;;8.32;;
38499;SDS011;24269;51.894;4.622;2022-07-21T09:58:58;12.60;;;9.05;;
38499;SDS011;24269;51.894;4.622;2022-07-21T10:03:34;12.63;;;9.18;;
38499;SDS011;24269;51.894;4.622;2022-07-21T10:06:02;11.77;;;8.05;;
38499;SDS011;24269;51.894;4.622;2022-07-21T10:08:28;9.30;;;6.72;;
38499;SDS011;24269;51.894;4.622;2022-07-21T10:10:54;10.63;;;7.57;;
38499;SDS011;24269;51.894;4.622;2022-07-21T10:13:20;10.90;;;6.90;;
38499;SDS011;24269;51.894;4.622;2022-07-21T10:15:46;13.00;;;6.95;;
38499;SDS011;24269;51.894;4.622;2022-07-21T10:18:13;9.48;;;5.55;;
38499;SDS011;24269;51.894;4.622;2022-07-21T10:20:40;7.90;;;5.75;;
38499;SDS011;24269;51.894;4.622;2022-07-21T10:23:16;7.63;;;5.15;;
38499;SDS011;24269;51.894;4.622;2022-07-21T10:25:47;9.73;;;4.70;;
38499;SDS011;24269;51.894;4.622;2022-07-21T10:28:14;8.73;;;4.57;;
38499;SDS011;24269;51.894;4.622;2022-07-21T10:30:44;7.90;;;4.50;;
38499;SDS011;24269;51.894;4.622;2022-07-21T10:35:42;6.30;;;3.60;;
38499;SDS011;24269;51.894;4.622;2022-07-21T10:40:55;5.25;;;3.92;;
38499;SDS011;24269;51.894;4.622;2022-07-21T10:45:50;6.28;;;3.42;;
38499;SDS011;24269;51.894;4.622;2022-07-21T10:51:02;7.65;;;4.40;;
38499;SDS011;24269;51.894;4.622;2022-07-21T10:53:32;5.57;;;3.77;;
38499;SDS011;24269;51.894;4.622;2022-07-21T10:55:58;7.43;;;3.70;;
38499;SDS011;24269;51.894;4.622;2022-07-21T11:03:26;7.40;;;3.70;;
38499;SDS011;24269;51.894;4.622;2022-07-21T11:11:14;6.78;;;3.15;;
38499;SDS011;24269;51.894;4.622;2022-07-21T11:17:09;5.82;;;2.80;;
38499;SDS011;24269;51.894;4.622;2022-07-21T11:21:56;7.45;;;3.13;;
38499;SDS011;24269;51.894;4.622;2022-07-21T11:24:26;8.75;;;2.97;;
38499;SDS011;24269;51.894;4.622;2022-07-21T11:26:53;15.88;;;10.18;;
38499;SDS011;24269;51.894;4.622;2022-07-21T11:29:29;8.65;;;3.90;;
38499;SDS011;24269;51.894;4.622;2022-07-21T11:31:56;5.07;;;2.53;;
38499;SDS011;24269;51.894;4.622;2022-07-21T11:34:23;4.85;;;2.20;;
38499;SDS011;24269;51.894;4.622;2022-07-21T11:37:00;4.93;;;2.40;;
38499;SDS011;24269;51.894;4.622;2022-07-21T11:39:26;6.45;;;2.20;;
38499;SDS011;24269;51.894;4.622;2022-07-21T11:41:52;6.75;;;1.83;;
38499;SDS011;24269;51.894;4.622;2022-07-21T11:44:24;4.60;;;1.70;;
38499;SDS011;24269;51.894;4.622;2022-07-21T11:46:54;5.03;;;1.80;;
38499;SDS011;24269;51.894;4.622;2022-07-21T11:54:34;5.07;;;2.33;;
38499;SDS011;24269;51.894;4.622;2022-07-21T11:57:08;6.95;;;2.53;;
38499;SDS011;24269;51.894;4.622;2022-07-21T11:59:35;6.10;;;2.75;;
38499;SDS011;24269;51.894;4.622;2022-07-21T12:02:07;9.95;;;2.20;;
38499;SDS011;24269;51.894;4.622;2022-07-21T12:07:10;8.80;;;2.20;;
38499;SDS011;24269;51.894;4.622;2022-07-21T12:09:37;9.85;;;2.55;;
38499;SDS011;24269;51.894;4.622;2022-07-21T12:12:04;6.93;;;2.70;;
38499;SDS011;24269;51.894;4.622;2022-07-21T12:14:49;8.93;;;2.55;;
38499;SDS011;24269;51.894;4.622;2022-07-21T12:17:16;7.85;;;2.47;;
38499;SDS011;24269;51.894;4.622;2022-07-21T12:19:56;7.07;;;1.90;;
38499;SDS011;24269;51.894;4.622;2022-07-21T12:22:38;6.05;;;1.80;;
38499;SDS011;24269;51.894;4.622;2022-07-21T12:25:08;5.47;;;1.58;;
38499;SDS011;24269;51.894;4.622;2022-07-21T12:27:35;8.27;;;1.90;;
38499;SDS011;24269;51.894;4.622;2022-07-21T12:30:03;5.07;;;1.80;;
38499;SDS011;24269;51.894;4.622;2022-07-21T12:32:43;4.00;;;1.75;;
38499;SDS011;24269;51.894;4.622;2022-07-21T12:35:18;5.07;;;1.50;;
38499;SDS011;24269;51.894;4.622;2022-07-21T12:37:56;6.28;;;1.80;;
38499;SDS011;24269;51.894;4.622;2022-07-21T12:40:28;7.63;;;1.38;;
38499;SDS011;24269;51.894;4.622;2022-07-21T12:43:08;6.88;;;2.00;;
38499;SDS011;24269;51.894;4.622;2022-07-21T12:48:16;4.10;;;1.58;;
38499;SDS011;24269;51.894;4.622;2022-07-21T12:50:56;4.93;;;1.50;;
38499;SDS011;24269;51.894;4.622;2022-07-21T12:53:23;6.72;;;1.70;;
38499;SDS011;24269;51.894;4.622;2022-07-21T12:55:49;4.70;;;1.45;;
38499;SDS011;24269;51.894;4.622;2022-07-21T12:58:14;5.25;;;1.60;;
38499;SDS011;24269;51.894;4.622;2022-07-21T13:00:40;6.15;;;1.27;;
38499;SDS011;24269;51.894;4.622;2022-07-21T13:03:05;6.13;;;1.60;;
38499;SDS011;24269;51.894;4.622;2022-07-21T13:05:31;6.55;;;1.63;;
38499;SDS011;24269;51.894;4.622;2022-07-21T13:07:57;5.10;;;1.23;;
38499;SDS011;24269;51.894;4.622;2022-07-21T13:10:22;5.45;;;1.60;;
38499;SDS011;24269;51.894;4.622;2022-07-21T13:12:48;8.05;;;2.00;;
38499;SDS011;24269;51.894;4.622;2022-07-21T13:15:14;5.68;;;1.63;;
38499;SDS011;24269;51.894;4.622;2022-07-21T13:17:41;7.30;;;2.13;;
38499;SDS011;24269;51.894;4.622;2022-07-21T13:20:07;7.32;;;1.90;;
38499;SDS011;24269;51.894;4.622;2022-07-21T13:22:33;8.00;;;3.20;;
38499;SDS011;24269;51.894;4.622;2022-07-21T13:24:59;7.47;;;2.35;;
38499;SDS011;24269;51.894;4.622;2022-07-21T13:27:25;7.93;;;2.10;;
38499;SDS011;24269;51.894;4.622;2022-07-21T13:29:51;6.88;;;1.80;;
38499;SDS011;24269;51.894;4.622;2022-07-21T13:32:16;8.00;;;2.60;;
38499;SDS011;24269;51.894;4.622;2022-07-21T13:34:42;8.30;;;2.60;;
38499;SDS011;24269;51.894;4.622;2022-07-21T13:37:08;12.70;;;3.10;;
38499;SDS011;24269;51.894;4.622;2022-07-21T13:39:36;9.38;;;2.42;;
38499;SDS011;24269;51.894;4.622;2022-07-21T13:42:04;9.65;;;2.70;;
38499;SDS011;24269;51.894;4.622;2022-07-21T13:44:31;12.70;;;2.90;;
38499;SDS011;24269;51.894;4.622;2022-07-21T13:46:57;9.95;;;2.92;;
38499;SDS011;24269;51.894;4.622;2022-07-21T13:49:22;11.32;;;2.75;;
38499;SDS011;24269;51.894;4.622;2022-07-21T13:51:48;12.23;;;2.80;;
38499;SDS011;24269;51.894;4.622;2022-07-21T13:54:14;11.68;;;2.70;;
38499;SDS011;24269;51.894;4.622;2022-07-21T13:56:40;9.30;;;2.75;;
38499;SDS011;24269;51.894;4.622;2022-07-21T13:59:06;14.10;;;3.42;;
38499;SDS011;24269;51.894;4.622;2022-07-21T14:01:31;14.10;;;3.50;;
38499;SDS011;24269;51.894;4.622;2022-07-21T14:03:58;11.88;;;3.88;;
38499;SDS011;24269;51.894;4.622;2022-07-21T14:06:23;15.50;;;3.60;;
38499;SDS011;24269;51.894;4.622;2022-07-21T14:08:49;10.05;;;3.50;;
38499;SDS011;24269;51.894;4.622;2022-07-21T14:11:15;13.35;;;3.53;;
38499;SDS011;24269;51.894;4.622;2022-07-21T14:13:41;13.98;;;3.80;;
38499;SDS011;24269;51.894;4.622;2022-07-21T14:16:07;14.32;;;4.60;;
38499;SDS011;24269;51.894;4.622;2022-07-21T14:18:33;14.00;;;3.53;;
38499;SDS011;24269;51.894;4.622;2022-07-21T14:20:59;12.25;;;2.95;;
38499;SDS011;24269;51.894;4.622;2022-07-21T14:23:25;15.02;;;3.22;;
38499;SDS011;24269;51.894;4.622;2022-07-21T14:25:51;18.73;;;4.15;;
38499;SDS011;24269;51.894;4.622;2022-07-21T14:28:17;16.02;;;3.40;;
38499;SDS011;24269;51.894;4.622;2022-07-21T14:30:44;18.33;;;3.67;;
38499;SDS011;24269;51.894;4.622;2022-07-21T14:33:09;17.52;;;3.15;;
38499;SDS011;24269;51.894;4.622;2022-07-21T14:35:35;19.30;;;3.65;;
38499;SDS011;24269;51.894;4.622;2022-07-21T14:38:01;15.75;;;3.30;;
38499;SDS011;24269;51.894;4.622;2022-07-21T14:40:27;12.02;;;3.13;;
38499;SDS011;24269;51.894;4.622;2022-07-21T14:42:52;16.73;;;2.83;;
38499;SDS011;24269;51.894;4.622;2022-07-21T14:45:18;14.88;;;2.70;;
38499;SDS011;24269;51.894;4.622;2022-07-21T14:47:45;10.90;;;2.65;;
38499;SDS011;24269;51.894;4.622;2022-07-21T14:50:12;11.15;;;2.65;;
38499;SDS011;24269;51.894;4.622;2022-07-21T14:52:39;13.32;;;2.80;;
38499;SDS011;24269;51.894;4.622;2022-07-21T14:55:05;10.65;;;2.60;;
38499;SDS011;24269;51.894;4.622;2022-07-21T14:57:32;14.63;;;2.38;;
38499;SDS011;24269;51.894;4.622;2022-07-21T14:59:58;15.15;;;2.60;;
38499;SDS011;24269;51.894;4.622;2022-07-21T15:02:24;12.18;;;2.88;;
38499;SDS011;24269;51.894;4.622;2022-07-21T15:04:50;12.15;;;2.38;;
38499;SDS011;24269;51.894;4.622;2022-07-21T15:07:16;10.30;;;2.60;;
38499;SDS011;24269;51.894;4.622;2022-07-21T15:09:42;11.80;;;2.63;;
38499;SDS011;24269;51.894;4.622;2022-07-21T15:12:08;10.48;;;2.33;;
38499;SDS011;24269;51.894;4.622;2022-07-21T15:14:35;10.05;;;2.28;;
38499;SDS011;24269;51.894;4.622;2022-07-21T15:17:01;14.40;;;2.42;;
38499;SDS011;24269;51.894;4.622;2022-07-21T15:19:27;10.18;;;2.20;;
38499;SDS011;24269;51.894;4.622;2022-07-21T15:21:53;13.27;;;2.40;;
38499;SDS011;24269;51.894;4.622;2022-07-21T15:24:19;11.85;;;2.35;;